TimeEDT,TemperatureF,Dew PointF,Humidity,Sea Level PressureIn,VisibilityMPH,Wind Direction,Wind SpeedMPH,Gust SpeedMPH,PrecipitationIn,Events,Conditions,WindDirDegrees,DateUTC
12:58 AM,70.5,70.3,99,29.85,10.0,South,5.8,-,N/A,,Clear,170,2013-08-31 04:58:00
1:58 AM,69.4,69.3,99,29.83,9.0,South,4.6,-,N/A,,Clear,170,2013-08-31 05:58:00
2:58 AM,70.5,70.2,99,29.83,10.0,South,8.1,-,N/A,,Partly Cloudy,170,2013-08-31 06:58:00
3:58 AM,71.2,70.9,99,29.81,10.0,SSE,8.1,-,N/A,,Partly Cloudy,160,2013-08-31 07:58:00
4:58 AM,71.1,70.7,99,29.83,8.0,South,6.9,-,N/A,,Clear,180,2013-08-31 08:58:00
5:06 AM,71.6,71.6,100,29.81,8.0,South,8.1,-,N/A,,Partly Cloudy,190,2013-08-31 09:06:00
5:39 AM,71.6,71.6,100,29.81,8.0,South,6.9,-,N/A,,Mostly Cloudy,180,2013-08-31 09:39:00
5:41 AM,71.6,71.6,100,29.81,8.0,South,5.8,-,N/A,,Scattered Clouds,170,2013-08-31 09:41:00
5:57 AM,71.6,71.6,100,29.82,8.0,SSW,5.8,-,N/A,,Mostly Cloudy,200,2013-08-31 09:57:00
5:58 AM,71.4,71.1,99,29.83,8.0,SSW,5.8,-,N/A,,Mostly Cloudy,200,2013-08-31 09:58:00
6:08 AM,71.6,71.6,100,29.81,7.0,South,8.1,-,N/A,Rain,Light Rain,180,2013-08-31 10:08:00
6:24 AM,71.6,71.6,100,29.81,5.0,South,6.9,-,N/A,Rain,Light Rain,170,2013-08-31 10:24:00
6:32 AM,71.6,71.6,100,29.81,5.0,South,9.2,-,N/A,,Scattered Clouds,170,2013-08-31 10:32:00
6:58 AM,71.6,71.2,99,29.83,3.0,SSW,8.1,-,0.00,,Overcast,200,2013-08-31 10:58:00
7:17 AM,71.6,71.6,100,29.81,3.0,SSW,5.8,-,N/A,Rain,Light Rain,200,2013-08-31 11:17:00
7:58 AM,72.1,72.0,99,29.83,3.0,South,9.2,-,0.00,Rain,Light Rain,180,2013-08-31 11:58:00
8:28 AM,73.4,73.4,100,29.82,5.0,South,10.4,-,N/A,,Mostly Cloudy,180,2013-08-31 12:28:00
8:58 AM,73.9,73.4,98,29.85,5.0,South,8.1,-,0.00,,Overcast,190,2013-08-31 12:58:00
9:34 AM,75.2,73.4,94,29.83,5.0,South,10.4,-,N/A,,Mostly Cloudy,180,2013-08-31 13:34:00
9:51 AM,75.2,73.4,94,29.83,6.0,South,9.2,-,N/A,,Overcast,190,2013-08-31 13:51:00
9:58 AM,75.6,73.2,92,29.85,6.0,South,9.2,-,N/A,,Overcast,190,2013-08-31 13:58:00
10:58 AM,77.0,73.4,89,29.85,7.0,South,10.4,-,N/A,,Mostly Cloudy,180,2013-08-31 14:58:00
11:58 AM,78.3,72.5,82,29.83,7.0,South,11.5,-,N/A,,Overcast,180,2013-08-31 15:58:00
12:58 PM,77.9,72.5,83,29.83,7.0,SSW,11.5,-,N/A,,Overcast,200,2013-08-31 16:58:00
1:58 PM,79.2,73.0,81,29.83,10.0,South,12.7,-,N/A,,Mostly Cloudy,180,2013-08-31 17:58:00
2:58 PM,79.9,73.8,81,29.82,10.0,South,10.4,-,N/A,,Mostly Cloudy,190,2013-08-31 18:58:00
3:58 PM,78.6,73.4,84,29.81,10.0,South,12.7,-,N/A,,Mostly Cloudy,180,2013-08-31 19:58:00
4:57 PM,78.8,73.4,83,29.79,10.0,South,8.1,-,N/A,,Mostly Cloudy,190,2013-08-31 20:57:00
4:58 PM,78.4,73.4,84,29.81,10.0,South,8.1,-,N/A,,Mostly Cloudy,190,2013-08-31 20:58:00
5:29 PM,78.8,73.4,83,29.78,10.0,South,10.4,-,N/A,,Overcast,180,2013-08-31 21:29:00
5:58 PM,77.7,73.9,88,29.81,10.0,South,11.5,-,N/A,,Overcast,180,2013-08-31 21:58:00
6:58 PM,76.8,74.1,91,29.81,10.0,South,10.4,-,N/A,,Overcast,190,2013-08-31 22:58:00
7:26 PM,77.0,73.4,89,29.79,10.0,South,6.9,-,N/A,Thunderstorm,Thunderstorm,170,2013-08-31 23:26:00
7:49 PM,77.0,73.4,89,29.80,10.0,South,11.5,-,N/A,,Overcast,180,2013-08-31 23:49:00
7:58 PM,76.3,73.9,92,29.82,10.0,South,9.2,-,N/A,,Overcast,180,2013-08-31 23:58:00
8:33 PM,77.0,73.4,89,29.81,10.0,South,9.2,-,N/A,,Mostly Cloudy,190,2013-09-01 00:33:00
8:57 PM,75.2,73.4,94,29.80,10.0,South,6.9,-,N/A,,Overcast,170,2013-09-01 00:57:00
8:58 PM,75.2,73.4,94,29.82,10.0,South,6.9,-,N/A,,Overcast,170,2013-09-01 00:58:00
9:58 PM,75.2,75.2,100,29.83,10.0,SSW,6.9,-,N/A,,Mostly Cloudy,200,2013-09-01 01:58:00
10:15 PM,75.2,73.4,94,29.81,10.0,South,6.9,-,N/A,Rain,Light Rain,190,2013-09-01 02:15:00
10:40 PM,75.2,73.4,94,29.81,10.0,South,5.8,-,N/A,,Overcast,190,2013-09-01 02:40:00
10:55 PM,75.2,73.4,94,29.82,10.0,South,6.9,-,N/A,,Overcast,190,2013-09-01 02:55:00
10:58 PM,74.5,73.9,98,29.85,10.0,South,5.8,-,0.00,,Overcast,190,2013-09-01 02:58:00
10:59 PM,75.2,73.4,94,29.83,10.0,South,6.9,-,N/A,,Scattered Clouds,190,2013-09-01 02:59:00
11:58 PM,74.3,73.8,98,29.85,10.0,SSW,4.6,-,N/A,,Overcast,200,2013-09-01 03:58:00